sensor_id;sensor_type;location;lat;lon;timestamp;temperature;humidity
69387;SHT31;56575;48.942;8.404;2022-11-04T00:01:20;11.26;91.23
69387;SHT31;56575;48.942;8.404;2022-11-04T00:03:46;11.24;91.31
69387;SHT31;56575;48.942;8.404;2022-11-04T00:06:12;11.23;91.09
69387;SHT31;56575;48.942;8.404;2022-11-04T00:08:37;11.20;91.29
69387;SHT31;56575;48.942;8.404;2022-11-04T00:11:03;11.23;91.10
69387;SHT31;56575;48.942;8.404;2022-11-04T00:13:47;11.17;91.53
69387;SHT31;56575;48.942;8.404;2022-11-04T00:16:13;11.19;91.05
69387;SHT31;56575;48.942;8.404;2022-11-04T00:19:01;11.17;90.80
69387;SHT31;56575;48.942;8.404;2022-11-04T00:21:27;11.14;90.96
69387;SHT31;56575;48.942;8.404;2022-11-04T00:24:12;11.12;91.39
69387;SHT31;56575;48.942;8.404;2022-11-04T00:26:56;11.09;91.15
69387;SHT31;56575;48.942;8.404;2022-11-04T00:29:41;11.09;91.14
69387;SHT31;56575;48.942;8.404;2022-11-04T00:32:06;11.10;90.73
69387;SHT31;56575;48.942;8.404;2022-11-04T00:34:50;11.13;90.42
69387;SHT31;56575;48.942;8.404;2022-11-04T00:37:15;11.16;89.72
69387;SHT31;56575;48.942;8.404;2022-11-04T00:39:41;11.13;90.33
69387;SHT31;56575;48.942;8.404;2022-11-04T00:42:06;11.10;90.25
69387;SHT31;56575;48.942;8.404;2022-11-04T00:44:31;11.07;90.30
69387;SHT31;56575;48.942;8.404;2022-11-04T00:46:57;11.04;90.11
69387;SHT31;56575;48.942;8.404;2022-11-04T00:49:22;11.07;90.00
69387;SHT31;56575;48.942;8.404;2022-11-04T00:51:49;11.04;90.07
69387;SHT31;56575;48.942;8.404;2022-11-04T00:54:14;11.04;89.81
69387;SHT31;56575;48.942;8.404;2022-11-04T00:56:40;11.02;89.87
69387;SHT31;56575;48.942;8.404;2022-11-04T00:59:06;10.99;90.18
69387;SHT31;56575;48.942;8.404;2022-11-04T01:01:31;11.00;89.31
69387;SHT31;56575;48.942;8.404;2022-11-04T01:03:58;10.99;89.28
69387;SHT31;56575;48.942;8.404;2022-11-04T01:06:25;10.96;89.89
69387;SHT31;56575;48.942;8.404;2022-11-04T01:08:59;10.99;89.50
69387;SHT31;56575;48.942;8.404;2022-11-04T01:11:25;11.02;89.14
69387;SHT31;56575;48.942;8.404;2022-11-04T01:13:52;11.00;89.57
69387;SHT31;56575;48.942;8.404;2022-11-04T01:16:18;11.00;89.43
69387;SHT31;56575;48.942;8.404;2022-11-04T01:18:44;10.99;89.21
69387;SHT31;56575;48.942;8.404;2022-11-04T01:21:11;10.93;89.25
69387;SHT31;56575;48.942;8.404;2022-11-04T01:23:38;10.92;89.12
69387;SHT31;56575;48.942;8.404;2022-11-04T01:26:08;10.96;88.82
69387;SHT31;56575;48.942;8.404;2022-11-04T08:46:42;11.54;82.42
69387;SHT31;56575;48.942;8.404;2022-11-04T08:49:07;11.57;81.77
69387;SHT31;56575;48.942;8.404;2022-11-04T08:51:34;11.67;81.98
69387;SHT31;56575;48.942;8.404;2022-11-04T08:54:02;11.75;80.56
69387;SHT31;56575;48.942;8.404;2022-11-04T08:56:31;11.83;80.40
69387;SHT31;56575;48.942;8.404;2022-11-04T08:58:58;11.87;79.53
69387;SHT31;56575;48.942;8.404;2022-11-04T09:01:25;11.90;78.70
69387;SHT31;56575;48.942;8.404;2022-11-04T09:03:51;11.90;79.39
69387;SHT31;56575;48.942;8.404;2022-11-04T09:06:22;11.90;79.53
69387;SHT31;56575;48.942;8.404;2022-11-04T09:08:48;11.89;79.26
69387;SHT31;56575;48.942;8.404;2022-11-04T09:11:15;11.90;79.69
69387;SHT31;56575;48.942;8.404;2022-11-04T09:13:41;11.93;79.03
69387;SHT31;56575;48.942;8.404;2022-11-04T09:16:09;11.99;79.68
69387;SHT31;56575;48.942;8.404;2022-11-04T09:18:34;12.06;79.97
69387;SHT31;56575;48.942;8.404;2022-11-04T09:21:06;12.14;78.38
69387;SHT31;56575;48.942;8.404;2022-11-04T09:23:32;12.17;77.09
69387;SHT31;56575;48.942;8.404;2022-11-04T09:26:03;12.21;76.87
69387;SHT31;56575;48.942;8.404;2022-11-04T09:28:29;12.29;77.70
69387;SHT31;56575;48.942;8.404;2022-11-04T09:30:54;12.30;76.56
69387;SHT31;56575;48.942;8.404;2022-11-04T09:33:19;12.42;77.39
69387;SHT31;56575;48.942;8.404;2022-11-04T09:35:56;12.51;76.38
69387;SHT31;56575;48.942;8.404;2022-11-04T09:38:22;12.58;76.11
69387;SHT31;56575;48.942;8.404;2022-11-04T09:40:48;12.68;76.51
69387;SHT31;56575;48.942;8.404;2022-11-04T09:46:09;12.95;75.85
69387;SHT31;56575;48.942;8.404;2022-11-04T09:48:47;13.10;74.38
69387;SHT31;56575;48.942;8.404;2022-11-04T09:51:16;13.20;75.16
69387;SHT31;56575;48.942;8.404;2022-11-04T09:53:50;13.24;74.55
69387;SHT31;56575;48.942;8.404;2022-11-04T09:56:41;13.24;72.62
69387;SHT31;56575;48.942;8.404;2022-11-04T09:59:10;13.23;73.30
69387;SHT31;56575;48.942;8.404;2022-11-04T10:04:33;13.16;72.70
69387;SHT31;56575;48.942;8.404;2022-11-04T10:12:18;13.06;71.33
69387;SHT31;56575;48.942;8.404;2022-11-04T10:21:01;13.02;72.71
69387;SHT31;56575;48.942;8.404;2022-11-04T10:23:38;13.02;71.79
69387;SHT31;56575;48.942;8.404;2022-11-04T10:26:18;13.03;72.35
69387;SHT31;56575;48.942;8.404;2022-11-04T10:28:57;13.09;72.52
69387;SHT31;56575;48.942;8.404;2022-11-04T10:31:25;13.06;71.81
69387;SHT31;56575;48.942;8.404;2022-11-04T10:33:54;13.09;72.87
69387;SHT31;56575;48.942;8.404;2022-11-04T10:36:22;13.16;72.08
69387;SHT31;56575;48.942;8.404;2022-11-04T10:38:54;13.27;72.72
69387;SHT31;56575;48.942;8.404;2022-11-04T10:43:51;13.46;71.60
69387;SHT31;56575;48.942;8.404;2022-11-04T10:52:06;13.50;70.87
69387;SHT31;56575;48.942;8.404;2022-11-04T10:54:56;13.50;71.67
69387;SHT31;56575;48.942;8.404;2022-11-04T10:57:23;13.54;71.04
69387;SHT31;56575;48.942;8.404;2022-11-04T11:00:00;13.57;70.77
69387;SHT31;56575;48.942;8.404;2022-11-04T11:02:43;13.64;71.87
69387;SHT31;56575;48.942;8.404;2022-11-04T11:07:48;13.55;71.37
69387;SHT31;56575;48.942;8.404;2022-11-04T11:10:26;13.58;69.55
69387;SHT31;56575;48.942;8.404;2022-11-04T11:12:54;13.64;69.58
69387;SHT31;56575;48.942;8.404;2022-11-04T11:17:52;13.57;70.14
69387;SHT31;56575;48.942;8.404;2022-11-04T11:20:24;13.57;71.31
69387;SHT31;56575;48.942;8.404;2022-11-04T11:22:51;13.55;72.16
69387;SHT31;56575;48.942;8.404;2022-11-04T11:25:32;13.57;76.31
69387;SHT31;56575;48.942;8.404;2022-11-04T11:33:23;13.74;76.22
69387;SHT31;56575;48.942;8.404;2022-11-04T11:36:01;14.02;73.24
69387;SHT31;56575;48.942;8.404;2022-11-04T11:38:30;14.69;73.50
69387;SHT31;56575;48.942;8.404;2022-11-04T11:41:13;15.50;67.00
69387;SHT31;56575;48.942;8.404;2022-11-04T11:43:44;15.65;65.02
69387;SHT31;56575;48.942;8.404;2022-11-04T11:46:11;15.75;65.82
69387;SHT31;56575;48.942;8.404;2022-11-04T11:48:40;15.46;68.58
69387;SHT31;56575;48.942;8.404;2022-11-04T11:51:11;15.22;66.67
69387;SHT31;56575;48.942;8.404;2022-11-04T11:53:37;15.02;69.04
69387;SHT31;56575;48.942;8.404;2022-11-04T11:56:26;14.89;68.91
69387;SHT31;56575;48.942;8.404;2022-11-04T11:59:03;14.86;69.67
69387;SHT31;56575;48.942;8.404;2022-11-04T12:01:38;14.61;69.87
69387;SHT31;56575;48.942;8.404;2022-11-04T12:04:07;14.51;69.84
69387;SHT31;56575;48.942;8.404;2022-11-04T12:06:56;14.72;72.37
69387;SHT31;56575;48.942;8.404;2022-11-04T12:09:37;15.30;70.21
69387;SHT31;56575;48.942;8.404;2022-11-04T12:12:34;15.44;70.33
69387;SHT31;56575;48.942;8.404;2022-11-04T12:15:22;15.29;70.25
69387;SHT31;56575;48.942;8.404;2022-11-04T12:18:23;15.06;69.37
69387;SHT31;56575;48.942;8.404;2022-11-04T12:21:21;14.56;67.30
69387;SHT31;56575;48.942;8.404;2022-11-04T12:31:56;16.57;63.78
69387;SHT31;56575;48.942;8.404;2022-11-04T12:39:47;19.79;52.26
69387;SHT31;56575;48.942;8.404;2022-11-04T12:42:25;20.56;51.97
69387;SHT31;56575;48.942;8.404;2022-11-04T12:45:20;20.13;52.45
69387;SHT31;56575;48.942;8.404;2022-11-04T12:47:47;19.63;52.75
69387;SHT31;56575;48.942;8.404;2022-11-04T12:50:47;19.85;53.77
69387;SHT31;56575;48.942;8.404;2022-11-04T13:01:28;17.48;53.27
69387;SHT31;56575;48.942;8.404;2022-11-04T13:04:13;16.65;54.69
69387;SHT31;56575;48.942;8.404;2022-11-04T13:06:41;16.51;55.34
69387;SHT31;56575;48.942;8.404;2022-11-04T13:09:17;16.37;59.14
69387;SHT31;56575;48.942;8.404;2022-11-04T13:11:52;16.63;57.55
69387;SHT31;56575;48.942;8.404;2022-11-04T13:17:26;16.74;55.29
69387;SHT31;56575;48.942;8.404;2022-11-04T13:19:55;16.67;55.22
69387;SHT31;56575;48.942;8.404;2022-11-04T13:22:30;17.64;53.07
69387;SHT31;56575;48.942;8.404;2022-11-04T13:27:30;17.50;54.25
69387;SHT31;56575;48.942;8.404;2022-11-04T13:33:57;17.89;48.73
69387;SHT31;56575;48.942;8.404;2022-11-04T13:38:47;20.36;45.05
69387;SHT31;56575;48.942;8.404;2022-11-04T13:44:17;21.84;41.64
69387;SHT31;56575;48.942;8.404;2022-11-04T13:46:50;21.09;43.26
69387;SHT31;56575;48.942;8.404;2022-11-04T13:49:25;20.85;44.31
69387;SHT31;56575;48.942;8.404;2022-11-04T13:52:09;20.43;44.72
69387;SHT31;56575;48.942;8.404;2022-11-04T13:55:02;18.89;49.09
69387;SHT31;56575;48.942;8.404;2022-11-04T13:57:56;18.33;50.28
69387;SHT31;56575;48.942;8.404;2022-11-04T14:00:25;18.06;51.63
69387;SHT31;56575;48.942;8.404;2022-11-04T14:02:58;17.46;50.91
69387;SHT31;56575;48.942;8.404;2022-11-04T14:18:38;15.65;58.76
69387;SHT31;56575;48.942;8.404;2022-11-04T14:21:09;15.22;59.47
69387;SHT31;56575;48.942;8.404;2022-11-04T14:23:48;14.91;62.03
69387;SHT31;56575;48.942;8.404;2022-11-04T14:26:17;14.78;62.25
69387;SHT31;56575;48.942;8.404;2022-11-04T14:29:08;14.45;66.08
69387;SHT31;56575;48.942;8.404;2022-11-04T14:31:41;14.30;66.60
69387;SHT31;56575;48.942;8.404;2022-11-04T14:34:25;14.21;71.08
69387;SHT31;56575;48.942;8.404;2022-11-04T14:36:55;14.14;73.78
69387;SHT31;56575;48.942;8.404;2022-11-04T14:39:23;13.89;72.69
69387;SHT31;56575;48.942;8.404;2022-11-04T14:44:31;13.51;74.17
69387;SHT31;56575;48.942;8.404;2022-11-04T14:47:19;13.43;75.13
69387;SHT31;56575;48.942;8.404;2022-11-04T14:49:48;13.41;75.46
69387;SHT31;56575;48.942;8.404;2022-11-04T14:52:32;13.51;75.93
69387;SHT31;56575;48.942;8.404;2022-11-04T14:55:06;13.59;75.30
69387;SHT31;56575;48.942;8.404;2022-11-04T15:00:36;13.75;75.77
69387;SHT31;56575;48.942;8.404;2022-11-04T15:05:36;13.79;78.01
69387;SHT31;56575;48.942;8.404;2022-11-04T15:10:50;13.68;75.32
69387;SHT31;56575;48.942;8.404;2022-11-04T15:13:19;13.67;74.64
69387;SHT31;56575;48.942;8.404;2022-11-04T15:15:45;13.53;77.38
69387;SHT31;56575;48.942;8.404;2022-11-04T15:18:18;13.28;75.92
69387;SHT31;56575;48.942;8.404;2022-11-04T15:20:50;13.28;76.65
69387;SHT31;56575;48.942;8.404;2022-11-04T15:23:46;13.26;77.27
69387;SHT31;56575;48.942;8.404;2022-11-04T15:26:25;13.07;80.27
69387;SHT31;56575;48.942;8.404;2022-11-04T15:28:52;13.00;78.50
69387;SHT31;56575;48.942;8.404;2022-11-04T15:31:24;12.97;79.70
69387;SHT31;56575;48.942;8.404;2022-11-04T15:33:55;12.89;80.64
69387;SHT31;56575;48.942;8.404;2022-11-04T15:36:37;12.81;78.88
69387;SHT31;56575;48.942;8.404;2022-11-04T15:39:10;12.72;79.35
69387;SHT31;56575;48.942;8.404;2022-11-04T15:41:37;12.71;80.30
69387;SHT31;56575;48.942;8.404;2022-11-04T15:44:27;12.65;80.32
69387;SHT31;56575;48.942;8.404;2022-11-04T15:46:56;12.59;79.89
69387;SHT31;56575;48.942;8.404;2022-11-04T15:49:32;12.52;80.51
69387;SHT31;56575;48.942;8.404;2022-11-04T15:52:03;12.48;80.84
69387;SHT31;56575;48.942;8.404;2022-11-04T15:54:35;12.42;80.21
69387;SHT31;56575;48.942;8.404;2022-11-04T15:57:21;12.38;80.12
69387;SHT31;56575;48.942;8.404;2022-11-04T15:59:55;12.36;80.26
69387;SHT31;56575;48.942;8.404;2022-11-04T16:02:30;12.34;80.14
69387;SHT31;56575;48.942;8.404;2022-11-04T16:05:20;12.34;80.50
69387;SHT31;56575;48.942;8.404;2022-11-04T16:07:48;12.31;80.30
69387;SHT31;56575;48.942;8.404;2022-11-04T16:10:21;12.29;80.38
69387;SHT31;56575;48.942;8.404;2022-11-04T16:12:48;12.30;80.07
69387;SHT31;56575;48.942;8.404;2022-11-04T16:17:59;12.26;82.10
69387;SHT31;56575;48.942;8.404;2022-11-04T16:20:25;12.26;82.00
69387;SHT31;56575;48.942;8.404;2022-11-04T16:22:58;12.26;82.51
69387;SHT31;56575;48.942;8.404;2022-11-04T16:25:29;12.26;82.66
69387;SHT31;56575;48.942;8.404;2022-11-04T16:27:54;12.13;82.47
69387;SHT31;56575;48.942;8.404;2022-11-04T16:30:22;12.09;82.00
69387;SHT31;56575;48.942;8.404;2022-11-04T16:32:51;12.09;82.73
69387;SHT31;56575;48.942;8.404;2022-11-04T16:35:25;12.06;81.65
69387;SHT31;56575;48.942;8.404;2022-11-04T16:37:51;12.04;81.99
69387;SHT31;56575;48.942;8.404;2022-11-04T16:40:18;12.04;81.92
69387;SHT31;56575;48.942;8.404;2022-11-04T16:42:45;11.99;82.00
69387;SHT31;56575;48.942;8.404;2022-11-04T16:45:22;11.97;82.36
69387;SHT31;56575;48.942;8.404;2022-11-04T16:47:49;11.97;82.96
69387;SHT31;56575;48.942;8.404;2022-11-04T16:50:15;11.96;83.38
69387;SHT31;56575;48.942;8.404;2022-11-04T16:52:42;11.92;82.22
69387;SHT31;56575;48.942;8.404;2022-11-04T16:55:08;11.89;82.99
69387;SHT31;56575;48.942;8.404;2022-11-04T16:57:33;11.87;82.66
69387;SHT31;56575;48.942;8.404;2022-11-04T16:59:59;11.85;83.02
69387;SHT31;56575;48.942;8.404;2022-11-04T17:02:27;11.85;83.33
69387;SHT31;56575;48.942;8.404;2022-11-04T17:04:54;11.85;82.54
69387;SHT31;56575;48.942;8.404;2022-11-04T17:07:20;11.82;82.55
69387;SHT31;56575;48.942;8.404;2022-11-04T17:09:45;11.81;82.63
69387;SHT31;56575;48.942;8.404;2022-11-04T17:12:11;11.81;82.82
69387;SHT31;56575;48.942;8.404;2022-11-04T17:14:36;11.78;82.26
69387;SHT31;56575;48.942;8.404;2022-11-04T17:17:02;11.71;82.28
69387;SHT31;56575;48.942;8.404;2022-11-04T17:19:28;11.65;81.95
69387;SHT31;56575;48.942;8.404;2022-11-04T17:21:54;11.68;82.88
69387;SHT31;56575;48.942;8.404;2022-11-04T17:24:19;11.62;83.54
69387;SHT31;56575;48.942;8.404;2022-11-04T17:26:45;11.57;83.63
69387;SHT31;56575;48.942;8.404;2022-11-04T17:29:10;11.57;84.40
69387;SHT31;56575;48.942;8.404;2022-11-04T17:31:35;11.52;84.08
69387;SHT31;56575;48.942;8.404;2022-11-04T17:34:03;11.52;84.47
69387;SHT31;56575;48.942;8.404;2022-11-04T17:36:30;11.52;84.64
69387;SHT31;56575;48.942;8.404;2022-11-04T17:38:55;11.50;84.41
69387;SHT31;56575;48.942;8.404;2022-11-04T17:41:21;11.51;84.29
69387;SHT31;56575;48.942;8.404;2022-11-04T17:44:05;11.51;84.28
69387;SHT31;56575;48.942;8.404;2022-11-04T17:46:32;11.48;84.02
69387;SHT31;56575;48.942;8.404;2022-11-04T17:48:58;11.48;83.79
69387;SHT31;56575;48.942;8.404;2022-11-04T17:51:24;11.50;83.47
69387;SHT31;56575;48.942;8.404;2022-11-04T17:53:50;11.55;83.42
69387;SHT31;56575;48.942;8.404;2022-11-04T17:56:17;11.55;83.35
69387;SHT31;56575;48.942;8.404;2022-11-04T17:58:43;11.58;83.47
69387;SHT31;56575;48.942;8.404;2022-11-04T18:01:10;11.61;83.18
69387;SHT31;56575;48.942;8.404;2022-11-04T18:03:37;11.59;83.04
69387;SHT31;56575;48.942;8.404;2022-11-04T18:06:02;11.57;82.51
69387;SHT31;56575;48.942;8.404;2022-11-04T18:08:28;11.59;82.88
69387;SHT31;56575;48.942;8.404;2022-11-04T18:11:01;11.55;82.88
69387;SHT31;56575;48.942;8.404;2022-11-04T18:13:27;11.57;83.33
69387;SHT31;56575;48.942;8.404;2022-11-04T18:15:53;11.52;83.15
69387;SHT31;56575;48.942;8.404;2022-11-04T18:18:18;11.52;83.22
69387;SHT31;56575;48.942;8.404;2022-11-04T18:20:44;11.52;83.07
69387;SHT31;56575;48.942;8.404;2022-11-04T18:23:09;11.54;83.24
69387;SHT31;56575;48.942;8.404;2022-11-04T18:25:38;11.48;83.32
69387;SHT31;56575;48.942;8.404;2022-11-04T18:28:04;11.50;83.65
69387;SHT31;56575;48.942;8.404;2022-11-04T18:30:29;11.52;83.93
69387;SHT31;56575;48.942;8.404;2022-11-04T18:32:55;11.54;83.86
69387;SHT31;56575;48.942;8.404;2022-11-04T18:35:20;11.54;84.12
69387;SHT31;56575;48.942;8.404;2022-11-04T18:37:46;11.57;83.79
69387;SHT31;56575;48.942;8.404;2022-11-04T18:40:11;11.54;83.38
69387;SHT31;56575;48.942;8.404;2022-11-04T18:42:37;11.52;84.10
69387;SHT31;56575;48.942;8.404;2022-11-04T18:45:02;11.51;84.15
69387;SHT31;56575;48.942;8.404;2022-11-04T18:47:28;11.52;84.00
69387;SHT31;56575;48.942;8.404;2022-11-04T18:49:54;11.50;84.01
69387;SHT31;56575;48.942;8.404;2022-11-04T18:52:20;11.48;84.51
69387;SHT31;56575;48.942;8.404;2022-11-04T18:54:45;11.48;84.04
69387;SHT31;56575;48.942;8.404;2022-11-04T18:57:11;11.48;83.62
69387;SHT31;56575;48.942;8.404;2022-11-04T18:59:37;11.48;83.56
69387;SHT31;56575;48.942;8.404;2022-11-04T19:02:04;11.52;83.70
69387;SHT31;56575;48.942;8.404;2022-11-04T19:04:29;11.50;84.02
69387;SHT31;56575;48.942;8.404;2022-11-04T19:06:55;11.48;83.72
69387;SHT31;56575;48.942;8.404;2022-11-04T19:09:20;11.48;84.14
69387;SHT31;56575;48.942;8.404;2022-11-04T19:11:47;11.45;84.25
69387;SHT31;56575;48.942;8.404;2022-11-04T19:14:14;11.45;83.74
69387;SHT31;56575;48.942;8.404;2022-11-04T19:16:43;11.47;84.27
69387;SHT31;56575;48.942;8.404;2022-11-04T19:19:12;11.48;84.79
69387;SHT31;56575;48.942;8.404;2022-11-04T19:21:37;11.45;84.36
69387;SHT31;56575;48.942;8.404;2022-11-04T19:24:05;11.40;84.08
69387;SHT31;56575;48.942;8.404;2022-11-04T19:26:33;11.40;84.61
69387;SHT31;56575;48.942;8.404;2022-11-04T19:29:02;11.35;84.82
69387;SHT31;56575;48.942;8.404;2022-11-04T19:31:29;11.35;84.46
69387;SHT31;56575;48.942;8.404;2022-11-04T19:33:59;11.32;84.67
69387;SHT31;56575;48.942;8.404;2022-11-04T19:36:28;11.32;84.74
69387;SHT31;56575;48.942;8.404;2022-11-04T19:38:54;11.32;84.67
69387;SHT31;56575;48.942;8.404;2022-11-04T19:41:20;11.34;84.19
69387;SHT31;56575;48.942;8.404;2022-11-04T19:44:07;11.31;85.06
69387;SHT31;56575;48.942;8.404;2022-11-04T19:46:33;11.31;84.70
69387;SHT31;56575;48.942;8.404;2022-11-04T19:48:59;11.28;84.86
69387;SHT31;56575;48.942;8.404;2022-11-04T19:51:25;11.32;85.75
69387;SHT31;56575;48.942;8.404;2022-11-04T19:53:51;11.27;85.75
69387;SHT31;56575;48.942;8.404;2022-11-04T19:56:17;11.20;85.60
69387;SHT31;56575;48.942;8.404;2022-11-04T19:58:43;11.23;86.19
69387;SHT31;56575;48.942;8.404;2022-11-04T20:01:10;11.19;85.78
69387;SHT31;56575;48.942;8.404;2022-11-04T20:03:37;11.19;86.48
69387;SHT31;56575;48.942;8.404;2022-11-04T20:06:03;11.16;85.84
69387;SHT31;56575;48.942;8.404;2022-11-04T20:08:28;11.09;86.33
69387;SHT31;56575;48.942;8.404;2022-11-04T20:10:54;11.00;86.65
69387;SHT31;56575;48.942;8.404;2022-11-04T20:13:19;11.02;86.69
69387;SHT31;56575;48.942;8.404;2022-11-04T20:18:47;10.82;87.90
69387;SHT31;56575;48.942;8.404;2022-11-04T20:21:14;10.72;88.43
69387;SHT31;56575;48.942;8.404;2022-11-04T20:23:41;10.73;88.46
69387;SHT31;56575;48.942;8.404;2022-11-04T20:26:10;10.68;88.99
69387;SHT31;56575;48.942;8.404;2022-11-04T20:28:37;10.67;88.67
69387;SHT31;56575;48.942;8.404;2022-11-04T20:31:08;10.58;89.06
69387;SHT31;56575;48.942;8.404;2022-11-04T20:33:35;10.57;89.03
69387;SHT31;56575;48.942;8.404;2022-11-04T20:36:01;10.51;89.01
69387;SHT31;56575;48.942;8.404;2022-11-04T20:38:27;10.59;88.95
69387;SHT31;56575;48.942;8.404;2022-11-04T20:40:52;10.61;88.13
69387;SHT31;56575;48.942;8.404;2022-11-04T20:43:18;10.49;87.51
69387;SHT31;56575;48.942;8.404;2022-11-04T20:45:43;10.54;87.42
69387;SHT31;56575;48.942;8.404;2022-11-04T20:48:08;10.54;86.85
69387;SHT31;56575;48.942;8.404;2022-11-04T20:50:35;10.54;86.65
69387;SHT31;56575;48.942;8.404;2022-11-04T20:53:00;10.51;86.06
69387;SHT31;56575;48.942;8.404;2022-11-04T20:55:26;10.48;86.60
69387;SHT31;56575;48.942;8.404;2022-11-04T20:57:52;10.52;86.28
69387;SHT31;56575;48.942;8.404;2022-11-04T21:00:18;10.59;85.55
69387;SHT31;56575;48.942;8.404;2022-11-04T21:02:43;10.59;85.37
69387;SHT31;56575;48.942;8.404;2022-11-04T21:05:09;10.55;84.96
69387;SHT31;56575;48.942;8.404;2022-11-04T21:07:34;10.57;84.86
69387;SHT31;56575;48.942;8.404;2022-11-04T21:10:01;10.54;84.97
69387;SHT31;56575;48.942;8.404;2022-11-04T21:12:26;10.57;84.39
69387;SHT31;56575;48.942;8.404;2022-11-04T21:14:52;10.54;84.17
69387;SHT31;56575;48.942;8.404;2022-11-04T21:17:17;10.48;84.35
69387;SHT31;56575;48.942;8.404;2022-11-04T21:19:43;10.51;84.46
69387;SHT31;56575;48.942;8.404;2022-11-04T21:22:08;10.52;84.66
69387;SHT31;56575;48.942;8.404;2022-11-04T21:24:33;10.48;84.04
69387;SHT31;56575;48.942;8.404;2022-11-04T21:26:59;10.52;83.93
69387;SHT31;56575;48.942;8.404;2022-11-04T21:29:25;10.55;84.03
69387;SHT31;56575;48.942;8.404;2022-11-04T21:31:50;10.55;83.50
69387;SHT31;56575;48.942;8.404;2022-11-04T21:34:16;10.57;83.62
69387;SHT31;56575;48.942;8.404;2022-11-04T21:36:41;10.51;83.87
69387;SHT31;56575;48.942;8.404;2022-11-04T21:39:07;10.54;83.92
69387;SHT31;56575;48.942;8.404;2022-11-04T21:41:35;10.52;84.29
69387;SHT31;56575;48.942;8.404;2022-11-04T21:44:03;10.52;84.04
69387;SHT31;56575;48.942;8.404;2022-11-04T21:46:30;10.51;84.24
69387;SHT31;56575;48.942;8.404;2022-11-04T21:48:56;10.47;84.32
69387;SHT31;56575;48.942;8.404;2022-11-04T21:51:24;10.45;84.72
69387;SHT31;56575;48.942;8.404;2022-11-04T21:53:50;10.47;84.91
69387;SHT31;56575;48.942;8.404;2022-11-04T21:56:24;10.47;84.35
69387;SHT31;56575;48.942;8.404;2022-11-04T21:58:53;10.45;84.75
69387;SHT31;56575;48.942;8.404;2022-11-04T22:01:22;10.45;84.71
69387;SHT31;56575;48.942;8.404;2022-11-04T22:03:53;10.41;84.96
69387;SHT31;56575;48.942;8.404;2022-11-04T22:06:19;10.41;85.10
69387;SHT31;56575;48.942;8.404;2022-11-04T22:08:46;10.40;85.26
69387;SHT31;56575;48.942;8.404;2022-11-04T22:11:29;10.49;85.28
69387;SHT31;56575;48.942;8.404;2022-11-04T22:13:55;10.48;85.11
69387;SHT31;56575;48.942;8.404;2022-11-04T22:16:23;10.52;85.35
69387;SHT31;56575;48.942;8.404;2022-11-04T22:18:50;10.48;85.32
69387;SHT31;56575;48.942;8.404;2022-11-04T22:21:17;10.38;85.35
69387;SHT31;56575;48.942;8.404;2022-11-04T22:23:43;10.41;85.46
69387;SHT31;56575;48.942;8.404;2022-11-04T22:26:16;10.42;85.76
69387;SHT31;56575;48.942;8.404;2022-11-04T22:28:41;10.40;86.01
69387;SHT31;56575;48.942;8.404;2022-11-04T22:31:15;10.47;86.20
69387;SHT31;56575;48.942;8.404;2022-11-04T22:33:42;10.44;85.88
69387;SHT31;56575;48.942;8.404;2022-11-04T22:36:08;10.45;85.89
69387;SHT31;56575;48.942;8.404;2022-11-04T22:38:35;10.47;86.22
69387;SHT31;56575;48.942;8.404;2022-11-04T22:41:02;10.51;86.22
69387;SHT31;56575;48.942;8.404;2022-11-04T22:43:28;10.45;85.92
69387;SHT31;56575;48.942;8.404;2022-11-04T22:45:55;10.44;86.69
69387;SHT31;56575;48.942;8.404;2022-11-04T22:48:21;10.45;85.89
69387;SHT31;56575;48.942;8.404;2022-11-04T22:50:56;10.41;86.06
69387;SHT31;56575;48.942;8.404;2022-11-04T22:53:22;10.42;86.45
69387;SHT31;56575;48.942;8.404;2022-11-04T22:55:49;10.34;86.30
69387;SHT31;56575;48.942;8.404;2022-11-04T22:58:14;10.38;86.46
69387;SHT31;56575;48.942;8.404;2022-11-04T23:00:40;10.36;86.45
69387;SHT31;56575;48.942;8.404;2022-11-04T23:03:05;10.37;86.85
69387;SHT31;56575;48.942;8.404;2022-11-04T23:05:31;10.42;86.49
69387;SHT31;56575;48.942;8.404;2022-11-04T23:07:58;10.38;86.38
69387;SHT31;56575;48.942;8.404;2022-11-04T23:10:28;10.44;86.43
69387;SHT31;56575;48.942;8.404;2022-11-04T23:13:13;10.41;86.86
69387;SHT31;56575;48.942;8.404;2022-11-04T23:15:58;10.45;86.86
69387;SHT31;56575;48.942;8.404;2022-11-04T23:18:45;10.42;86.98
69387;SHT31;56575;48.942;8.404;2022-11-04T23:21:15;10.42;87.26
69387;SHT31;56575;48.942;8.404;2022-11-04T23:24:00;10.38;87.11
69387;SHT31;56575;48.942;8.404;2022-11-04T23:26:44;10.37;87.47
69387;SHT31;56575;48.942;8.404;2022-11-04T23:29:11;10.31;88.86
69387;SHT31;56575;48.942;8.404;2022-11-04T23:31:55;10.25;88.87
69387;SHT31;56575;48.942;8.404;2022-11-04T23:34:20;10.16;90.70
69387;SHT31;56575;48.942;8.404;2022-11-04T23:37:05;10.14;91.52
69387;SHT31;56575;48.942;8.404;2022-11-04T23:39:43;10.10;90.79
69387;SHT31;56575;48.942;8.404;2022-11-04T23:42:12;10.07;90.81
69387;SHT31;56575;48.942;8.404;2022-11-04T23:44:46;10.04;90.91
69387;SHT31;56575;48.942;8.404;2022-11-04T23:47:33;10.02;91.79
69387;SHT31;56575;48.942;8.404;2022-11-04T23:50:17;9.97;92.31
69387;SHT31;56575;48.942;8.404;2022-11-04T23:53:02;10.00;92.82
69387;SHT31;56575;48.942;8.404;2022-11-04T23:55:46;9.99;91.33
69387;SHT31;56575;48.942;8.404;2022-11-04T23:58:30;9.97;91.63
